sensor_id;sensor_type;location;lat;lon;timestamp;P1;durP1;ratioP1;P2;durP2;ratioP2
20890;SDS011;10605;52.968;8.844;2022-09-21T00:01:31;9.35;;;5.00;;
20890;SDS011;10605;52.968;8.844;2022-09-21T00:03:57;10.23;;;5.20;;
20890;SDS011;10605;52.968;8.844;2022-09-21T00:06:26;6.13;;;4.20;;
20890;SDS011;10605;52.968;8.844;2022-09-21T00:08:53;7.03;;;4.53;;
20890;SDS011;10605;52.968;8.844;2022-09-21T00:11:20;8.98;;;4.82;;
20890;SDS011;10605;52.968;8.844;2022-09-21T00:13:53;5.30;;;4.28;;
20890;SDS011;10605;52.968;8.844;2022-09-21T00:16:21;9.13;;;4.70;;
20890;SDS011;10605;52.968;8.844;2022-09-21T00:18:48;6.72;;;4.85;;
20890;SDS011;10605;52.968;8.844;2022-09-21T00:21:14;10.05;;;4.93;;
20890;SDS011;10605;52.968;8.844;2022-09-21T00:23:41;7.53;;;4.65;;
20890;SDS011;10605;52.968;8.844;2022-09-21T00:26:10;5.55;;;4.78;;
20890;SDS011;10605;52.968;8.844;2022-09-21T00:28:39;5.50;;;4.53;;
20890;SDS011;10605;52.968;8.844;2022-09-21T00:31:06;4.75;;;4.40;;
20890;SDS011;10605;52.968;8.844;2022-09-21T00:33:36;6.05;;;4.43;;
20890;SDS011;10605;52.968;8.844;2022-09-21T00:36:04;11.25;;;5.43;;
20890;SDS011;10605;52.968;8.844;2022-09-21T00:38:31;11.63;;;5.05;;
20890;SDS011;10605;52.968;8.844;2022-09-21T00:40:58;7.75;;;4.28;;
20890;SDS011;10605;52.968;8.844;2022-09-21T00:43:24;5.43;;;4.93;;
20890;SDS011;10605;52.968;8.844;2022-09-21T00:45:50;5.18;;;4.35;;
20890;SDS011;10605;52.968;8.844;2022-09-21T00:48:25;9.70;;;4.65;;
20890;SDS011;10605;52.968;8.844;2022-09-21T00:50:53;9.60;;;5.22;;
20890;SDS011;10605;52.968;8.844;2022-09-21T00:53:22;4.97;;;4.47;;
20890;SDS011;10605;52.968;8.844;2022-09-21T00:55:49;5.00;;;4.57;;
20890;SDS011;10605;52.968;8.844;2022-09-21T00:58:19;5.07;;;4.68;;
20890;SDS011;10605;52.968;8.844;2022-09-21T01:00:51;5.32;;;3.85;;
20890;SDS011;10605;52.968;8.844;2022-09-21T01:03:18;5.63;;;4.15;;
20890;SDS011;10605;52.968;8.844;2022-09-21T01:05:43;8.55;;;4.20;;
20890;SDS011;10605;52.968;8.844;2022-09-21T01:08:09;6.90;;;4.43;;
20890;SDS011;10605;52.968;8.844;2022-09-21T01:10:44;7.60;;;3.80;;
20890;SDS011;10605;52.968;8.844;2022-09-21T01:16:00;8.32;;;4.93;;
20890;SDS011;10605;52.968;8.844;2022-09-21T01:31:48;6.57;;;4.85;;
20890;SDS011;10605;52.968;8.844;2022-09-21T01:34:41;6.15;;;4.95;;
20890;SDS011;10605;52.968;8.844;2022-09-21T01:37:12;7.72;;;5.18;;
20890;SDS011;10605;52.968;8.844;2022-09-21T01:39:42;13.52;;;5.78;;
20890;SDS011;10605;52.968;8.844;2022-09-21T01:42:11;8.20;;;6.00;;
20890;SDS011;10605;52.968;8.844;2022-09-21T01:44:39;8.50;;;5.55;;
20890;SDS011;10605;52.968;8.844;2022-09-21T01:47:08;6.45;;;5.10;;
20890;SDS011;10605;52.968;8.844;2022-09-21T01:49:40;7.05;;;5.07;;
20890;SDS011;10605;52.968;8.844;2022-09-21T01:52:15;7.50;;;4.50;;
20890;SDS011;10605;52.968;8.844;2022-09-21T01:54:50;7.78;;;5.03;;
20890;SDS011;10605;52.968;8.844;2022-09-21T01:57:33;8.13;;;5.22;;
20890;SDS011;10605;52.968;8.844;2022-09-21T02:00:09;9.45;;;5.57;;
20890;SDS011;10605;52.968;8.844;2022-09-21T02:02:37;6.63;;;4.68;;
20890;SDS011;10605;52.968;8.844;2022-09-21T02:05:14;12.52;;;5.20;;
20890;SDS011;10605;52.968;8.844;2022-09-21T02:07:44;12.93;;;4.50;;
20890;SDS011;10605;52.968;8.844;2022-09-21T02:10:16;7.88;;;5.18;;
20890;SDS011;10605;52.968;8.844;2022-09-21T02:13:05;7.50;;;4.75;;
20890;SDS011;10605;52.968;8.844;2022-09-21T02:21:10;6.43;;;5.20;;
20890;SDS011;10605;52.968;8.844;2022-09-21T02:29:44;10.80;;;5.82;;
20890;SDS011;10605;52.968;8.844;2022-09-21T02:32:17;10.52;;;5.68;;
20890;SDS011;10605;52.968;8.844;2022-09-21T02:34:52;11.93;;;5.63;;
20890;SDS011;10605;52.968;8.844;2022-09-21T02:37:46;7.00;;;4.95;;
20890;SDS011;10605;52.968;8.844;2022-09-21T02:43:11;6.13;;;5.05;;
20890;SDS011;10605;52.968;8.844;2022-09-21T02:45:47;7.22;;;5.40;;
20890;SDS011;10605;52.968;8.844;2022-09-21T02:48:21;8.93;;;5.22;;
20890;SDS011;10605;52.968;8.844;2022-09-21T02:50:53;7.47;;;5.20;;
20890;SDS011;10605;52.968;8.844;2022-09-21T02:53:23;7.05;;;4.70;;
20890;SDS011;10605;52.968;8.844;2022-09-21T02:55:53;5.55;;;5.05;;
20890;SDS011;10605;52.968;8.844;2022-09-21T02:58:23;14.57;;;5.68;;
20890;SDS011;10605;52.968;8.844;2022-09-21T03:00:51;6.22;;;5.45;;
20890;SDS011;10605;52.968;8.844;2022-09-21T03:03:17;7.80;;;5.70;;
20890;SDS011;10605;52.968;8.844;2022-09-21T03:05:47;12.95;;;5.72;;
20890;SDS011;10605;52.968;8.844;2022-09-21T03:08:14;8.18;;;5.63;;
20890;SDS011;10605;52.968;8.844;2022-09-21T03:10:40;6.97;;;5.70;;
20890;SDS011;10605;52.968;8.844;2022-09-21T03:13:06;11.32;;;5.75;;
20890;SDS011;10605;52.968;8.844;2022-09-21T03:15:33;15.80;;;6.97;;
20890;SDS011;10605;52.968;8.844;2022-09-21T03:18:00;6.97;;;5.60;;
20890;SDS011;10605;52.968;8.844;2022-09-21T03:20:29;9.23;;;6.50;;
20890;SDS011;10605;52.968;8.844;2022-09-21T03:22:56;6.53;;;5.93;;
20890;SDS011;10605;52.968;8.844;2022-09-21T03:25:22;8.15;;;5.68;;
20890;SDS011;10605;52.968;8.844;2022-09-21T03:27:47;10.30;;;5.80;;
20890;SDS011;10605;52.968;8.844;2022-09-21T03:30:18;15.25;;;5.93;;
20890;SDS011;10605;52.968;8.844;2022-09-21T03:32:48;9.17;;;5.43;;
20890;SDS011;10605;52.968;8.844;2022-09-21T03:35:21;10.43;;;5.70;;
20890;SDS011;10605;52.968;8.844;2022-09-21T03:37:48;12.23;;;5.70;;
20890;SDS011;10605;52.968;8.844;2022-09-21T03:40:14;10.40;;;5.35;;
20890;SDS011;10605;52.968;8.844;2022-09-21T03:42:40;9.27;;;5.35;;
20890;SDS011;10605;52.968;8.844;2022-09-21T03:45:07;5.78;;;5.13;;
20890;SDS011;10605;52.968;8.844;2022-09-21T03:47:34;10.48;;;5.40;;
20890;SDS011;10605;52.968;8.844;2022-09-21T03:50:00;9.38;;;5.47;;
20890;SDS011;10605;52.968;8.844;2022-09-21T03:52:26;6.82;;;5.88;;
20890;SDS011;10605;52.968;8.844;2022-09-21T03:54:51;16.02;;;5.35;;
20890;SDS011;10605;52.968;8.844;2022-09-21T03:57:18;11.30;;;4.97;;
20890;SDS011;10605;52.968;8.844;2022-09-21T03:59:44;7.93;;;5.07;;
20890;SDS011;10605;52.968;8.844;2022-09-21T04:02:12;6.78;;;4.88;;
20890;SDS011;10605;52.968;8.844;2022-09-21T04:04:38;7.43;;;5.43;;
20890;SDS011;10605;52.968;8.844;2022-09-21T04:07:03;10.30;;;5.40;;
20890;SDS011;10605;52.968;8.844;2022-09-21T04:09:29;10.68;;;5.93;;
20890;SDS011;10605;52.968;8.844;2022-09-21T04:11:55;20.50;;;7.77;;
20890;SDS011;10605;52.968;8.844;2022-09-21T04:14:20;14.05;;;8.05;;
20890;SDS011;10605;52.968;8.844;2022-09-21T04:16:47;13.10;;;6.97;;
20890;SDS011;10605;52.968;8.844;2022-09-21T04:19:14;14.88;;;6.30;;
20890;SDS011;10605;52.968;8.844;2022-09-21T04:21:40;13.05;;;5.70;;
20890;SDS011;10605;52.968;8.844;2022-09-21T04:24:06;7.93;;;6.13;;
20890;SDS011;10605;52.968;8.844;2022-09-21T04:26:32;11.32;;;5.53;;
20890;SDS011;10605;52.968;8.844;2022-09-21T04:28:59;11.55;;;6.32;;
20890;SDS011;10605;52.968;8.844;2022-09-21T04:31:26;8.55;;;5.40;;
20890;SDS011;10605;52.968;8.844;2022-09-21T04:33:53;12.35;;;6.20;;
20890;SDS011;10605;52.968;8.844;2022-09-21T04:36:21;7.70;;;5.90;;
20890;SDS011;10605;52.968;8.844;2022-09-21T04:38:47;13.43;;;7.40;;
20890;SDS011;10605;52.968;8.844;2022-09-21T04:41:14;9.68;;;7.90;;
20890;SDS011;10605;52.968;8.844;2022-09-21T04:43:41;8.35;;;6.07;;
20890;SDS011;10605;52.968;8.844;2022-09-21T04:46:11;14.43;;;6.15;;
20890;SDS011;10605;52.968;8.844;2022-09-21T04:48:38;12.35;;;5.85;;
20890;SDS011;10605;52.968;8.844;2022-09-21T04:51:04;12.40;;;6.63;;
20890;SDS011;10605;52.968;8.844;2022-09-21T04:53:32;8.52;;;6.22;;
20890;SDS011;10605;52.968;8.844;2022-09-21T04:55:58;9.00;;;7.03;;
20890;SDS011;10605;52.968;8.844;2022-09-21T04:58:24;11.25;;;6.72;;
20890;SDS011;10605;52.968;8.844;2022-09-21T05:00:53;12.50;;;6.82;;
20890;SDS011;10605;52.968;8.844;2022-09-21T05:03:21;7.78;;;6.72;;
20890;SDS011;10605;52.968;8.844;2022-09-21T05:05:49;19.98;;;6.70;;
20890;SDS011;10605;52.968;8.844;2022-09-21T05:08:16;11.45;;;6.10;;
20890;SDS011;10605;52.968;8.844;2022-09-21T05:11:06;6.85;;;6.00;;
20890;SDS011;10605;52.968;8.844;2022-09-21T05:13:34;13.18;;;6.13;;
20890;SDS011;10605;52.968;8.844;2022-09-21T05:16:00;8.93;;;6.82;;
20890;SDS011;10605;52.968;8.844;2022-09-21T05:18:26;7.82;;;6.72;;
20890;SDS011;10605;52.968;8.844;2022-09-21T05:20:58;7.60;;;6.80;;
20890;SDS011;10605;52.968;8.844;2022-09-21T05:23:25;7.82;;;7.05;;
20890;SDS011;10605;52.968;8.844;2022-09-21T05:25:53;9.05;;;6.95;;
20890;SDS011;10605;52.968;8.844;2022-09-21T05:28:20;16.63;;;8.05;;
20890;SDS011;10605;52.968;8.844;2022-09-21T05:33:36;12.95;;;7.72;;
20890;SDS011;10605;52.968;8.844;2022-09-21T05:36:10;11.43;;;8.73;;
20890;SDS011;10605;52.968;8.844;2022-09-21T05:39:00;11.32;;;7.63;;
20890;SDS011;10605;52.968;8.844;2022-09-21T05:41:27;9.70;;;7.55;;
20890;SDS011;10605;52.968;8.844;2022-09-21T05:43:52;9.40;;;7.70;;
20890;SDS011;10605;52.968;8.844;2022-09-21T05:46:19;13.63;;;8.93;;
20890;SDS011;10605;52.968;8.844;2022-09-21T05:49:01;14.25;;;8.82;;
20890;SDS011;10605;52.968;8.844;2022-09-21T05:57:04;10.38;;;8.43;;
20890;SDS011;10605;52.968;8.844;2022-09-21T06:04:42;11.43;;;8.07;;
20890;SDS011;10605;52.968;8.844;2022-09-21T06:07:08;11.45;;;7.45;;
20890;SDS011;10605;52.968;8.844;2022-09-21T06:09:33;8.13;;;7.10;;
20890;SDS011;10605;52.968;8.844;2022-09-21T06:11:59;9.85;;;6.72;;
20890;SDS011;10605;52.968;8.844;2022-09-21T06:14:24;10.68;;;6.90;;
20890;SDS011;10605;52.968;8.844;2022-09-21T06:16:50;9.35;;;6.75;;
20890;SDS011;10605;52.968;8.844;2022-09-21T06:19:17;14.55;;;5.80;;
20890;SDS011;10605;52.968;8.844;2022-09-21T06:21:42;6.72;;;5.03;;
20890;SDS011;10605;52.968;8.844;2022-09-21T06:24:10;7.90;;;4.70;;
20890;SDS011;10605;52.968;8.844;2022-09-21T06:26:36;7.07;;;4.30;;
20890;SDS011;10605;52.968;8.844;2022-09-21T06:29:02;8.13;;;4.88;;
20890;SDS011;10605;52.968;8.844;2022-09-21T06:31:28;8.48;;;4.85;;
20890;SDS011;10605;52.968;8.844;2022-09-21T06:33:54;4.97;;;4.28;;
20890;SDS011;10605;52.968;8.844;2022-09-21T06:36:20;9.48;;;4.32;;
20890;SDS011;10605;52.968;8.844;2022-09-21T06:38:45;5.75;;;4.47;;
20890;SDS011;10605;52.968;8.844;2022-09-21T06:41:11;7.70;;;4.80;;
20890;SDS011;10605;52.968;8.844;2022-09-21T06:43:36;4.60;;;3.92;;
20890;SDS011;10605;52.968;8.844;2022-09-21T06:46:02;7.45;;;4.35;;
20890;SDS011;10605;52.968;8.844;2022-09-21T06:48:29;11.40;;;5.53;;
20890;SDS011;10605;52.968;8.844;2022-09-21T06:51:02;9.25;;;4.60;;
20890;SDS011;10605;52.968;8.844;2022-09-21T06:53:29;4.82;;;4.00;;
20890;SDS011;10605;52.968;8.844;2022-09-21T06:56:06;7.68;;;3.85;;
20890;SDS011;10605;52.968;8.844;2022-09-21T06:58:34;4.38;;;3.65;;
20890;SDS011;10605;52.968;8.844;2022-09-21T07:01:08;7.35;;;3.65;;
20890;SDS011;10605;52.968;8.844;2022-09-21T07:03:35;6.68;;;4.22;;
20890;SDS011;10605;52.968;8.844;2022-09-21T07:06:02;5.80;;;3.97;;
20890;SDS011;10605;52.968;8.844;2022-09-21T07:08:28;4.90;;;3.70;;
20890;SDS011;10605;52.968;8.844;2022-09-21T07:10:56;4.85;;;3.47;;
20890;SDS011;10605;52.968;8.844;2022-09-21T07:13:23;4.18;;;2.88;;
20890;SDS011;10605;52.968;8.844;2022-09-21T07:15:49;7.93;;;3.78;;
20890;SDS011;10605;52.968;8.844;2022-09-21T07:18:15;6.38;;;3.47;;
20890;SDS011;10605;52.968;8.844;2022-09-21T07:20:41;11.60;;;3.15;;
20890;SDS011;10605;52.968;8.844;2022-09-21T07:23:11;12.75;;;3.25;;
20890;SDS011;10605;52.968;8.844;2022-09-21T07:25:48;7.03;;;3.70;;
20890;SDS011;10605;52.968;8.844;2022-09-21T07:31:15;3.72;;;2.33;;
20890;SDS011;10605;52.968;8.844;2022-09-21T07:33:42;5.22;;;2.42;;
20890;SDS011;10605;52.968;8.844;2022-09-21T07:36:10;5.95;;;2.10;;
20890;SDS011;10605;52.968;8.844;2022-09-21T07:38:37;3.60;;;1.95;;
20890;SDS011;10605;52.968;8.844;2022-09-21T07:41:04;6.00;;;2.25;;
20890;SDS011;10605;52.968;8.844;2022-09-21T07:43:31;4.25;;;2.05;;
20890;SDS011;10605;52.968;8.844;2022-09-21T07:45:57;3.22;;;2.03;;
20890;SDS011;10605;52.968;8.844;2022-09-21T07:48:25;3.22;;;2.13;;
20890;SDS011;10605;52.968;8.844;2022-09-21T07:50:52;7.03;;;1.80;;
20890;SDS011;10605;52.968;8.844;2022-09-21T07:53:18;6.85;;;2.05;;
20890;SDS011;10605;52.968;8.844;2022-09-21T07:55:46;4.50;;;2.17;;
20890;SDS011;10605;52.968;8.844;2022-09-21T07:58:11;5.32;;;1.75;;
20890;SDS011;10605;52.968;8.844;2022-09-21T08:00:56;4.13;;;1.85;;
20890;SDS011;10605;52.968;8.844;2022-09-21T08:03:22;4.78;;;1.80;;
20890;SDS011;10605;52.968;8.844;2022-09-21T08:05:47;5.75;;;1.60;;
20890;SDS011;10605;52.968;8.844;2022-09-21T08:08:13;5.22;;;1.40;;
20890;SDS011;10605;52.968;8.844;2022-09-21T08:10:40;5.32;;;1.38;;
20890;SDS011;10605;52.968;8.844;2022-09-21T08:13:06;4.05;;;1.23;;
20890;SDS011;10605;52.968;8.844;2022-09-21T08:15:32;2.25;;;1.08;;
20890;SDS011;10605;52.968;8.844;2022-09-21T08:17:58;4.63;;;1.30;;
20890;SDS011;10605;52.968;8.844;2022-09-21T08:20:26;4.53;;;1.35;;
20890;SDS011;10605;52.968;8.844;2022-09-21T08:23:10;6.75;;;1.30;;
20890;SDS011;10605;52.968;8.844;2022-09-21T08:28:48;4.40;;;1.23;;
20890;SDS011;10605;52.968;8.844;2022-09-21T08:31:21;2.85;;;1.05;;
20890;SDS011;10605;52.968;8.844;2022-09-21T08:34:10;5.25;;;0.93;;
20890;SDS011;10605;52.968;8.844;2022-09-21T08:36:35;3.35;;;1.27;;
20890;SDS011;10605;52.968;8.844;2022-09-21T08:39:01;3.85;;;0.90;;
20890;SDS011;10605;52.968;8.844;2022-09-21T08:44:12;5.97;;;1.23;;
20890;SDS011;10605;52.968;8.844;2022-09-21T08:46:43;4.10;;;1.75;;
20890;SDS011;10605;52.968;8.844;2022-09-21T08:51:46;3.95;;;1.00;;
20890;SDS011;10605;52.968;8.844;2022-09-21T08:57:32;3.83;;;1.35;;
20890;SDS011;10605;52.968;8.844;2022-09-21T08:59:58;6.10;;;1.67;;
20890;SDS011;10605;52.968;8.844;2022-09-21T09:13:49;2.90;;;1.30;;
20890;SDS011;10605;52.968;8.844;2022-09-21T09:19:28;3.55;;;1.52;;
20890;SDS011;10605;52.968;8.844;2022-09-21T09:22:00;7.22;;;0.90;;
20890;SDS011;10605;52.968;8.844;2022-09-21T09:24:37;6.80;;;1.10;;
20890;SDS011;10605;52.968;8.844;2022-09-21T09:27:20;5.43;;;1.20;;
20890;SDS011;10605;52.968;8.844;2022-09-21T09:29:59;3.30;;;1.17;;
20890;SDS011;10605;52.968;8.844;2022-09-21T09:32:39;2.65;;;1.00;;
20890;SDS011;10605;52.968;8.844;2022-09-21T09:37:55;2.45;;;0.85;;
20890;SDS011;10605;52.968;8.844;2022-09-21T09:52:08;4.35;;;1.13;;
20890;SDS011;10605;52.968;8.844;2022-09-21T09:54:37;5.72;;;1.38;;
20890;SDS011;10605;52.968;8.844;2022-09-21T09:57:04;9.63;;;1.42;;
20890;SDS011;10605;52.968;8.844;2022-09-21T09:59:34;2.13;;;0.88;;
20890;SDS011;10605;52.968;8.844;2022-09-21T10:02:22;7.30;;;1.05;;
20890;SDS011;10605;52.968;8.844;2022-09-21T10:04:59;2.45;;;0.95;;
20890;SDS011;10605;52.968;8.844;2022-09-21T10:15:54;2.58;;;1.00;;
20890;SDS011;10605;52.968;8.844;2022-09-21T10:21:05;3.53;;;0.75;;
20890;SDS011;10605;52.968;8.844;2022-09-21T10:23:33;4.13;;;1.10;;
20890;SDS011;10605;52.968;8.844;2022-09-21T10:26:03;2.28;;;0.88;;
20890;SDS011;10605;52.968;8.844;2022-09-21T10:28:33;3.10;;;1.38;;
20890;SDS011;10605;52.968;8.844;2022-09-21T10:31:20;7.65;;;1.33;;
20890;SDS011;10605;52.968;8.844;2022-09-21T10:34:33;4.18;;;1.15;;
20890;SDS011;10605;52.968;8.844;2022-09-21T10:36:40;3.10;;;1.00;;
20890;SDS011;10605;52.968;8.844;2022-09-21T10:39:25;3.38;;;1.08;;
20890;SDS011;10605;52.968;8.844;2022-09-21T10:44:44;2.92;;;0.70;;
20890;SDS011;10605;52.968;8.844;2022-09-21T10:48:13;2.92;;;1.23;;
20890;SDS011;10605;52.968;8.844;2022-09-21T10:52:45;2.30;;;0.85;;
20890;SDS011;10605;52.968;8.844;2022-09-21T10:55:14;4.35;;;1.20;;
20890;SDS011;10605;52.968;8.844;2022-09-21T10:57:45;6.03;;;1.02;;
20890;SDS011;10605;52.968;8.844;2022-09-21T11:00:34;5.15;;;1.92;;
20890;SDS011;10605;52.968;8.844;2022-09-21T11:06:24;4.57;;;1.00;;
20890;SDS011;10605;52.968;8.844;2022-09-21T11:11:34;3.08;;;1.10;;
20890;SDS011;10605;52.968;8.844;2022-09-21T11:14:25;3.25;;;1.02;;
20890;SDS011;10605;52.968;8.844;2022-09-21T11:19:40;3.42;;;1.08;;
20890;SDS011;10605;52.968;8.844;2022-09-21T11:25:41;3.20;;;0.60;;
20890;SDS011;10605;52.968;8.844;2022-09-21T11:28:01;3.40;;;0.93;;
20890;SDS011;10605;52.968;8.844;2022-09-21T11:30:52;2.88;;;0.80;;
20890;SDS011;10605;52.968;8.844;2022-09-21T11:36:07;6.18;;;1.45;;
20890;SDS011;10605;52.968;8.844;2022-09-21T11:41:49;3.10;;;1.00;;
20890;SDS011;10605;52.968;8.844;2022-09-21T11:50:01;2.72;;;0.70;;
20890;SDS011;10605;52.968;8.844;2022-09-21T11:55:47;3.60;;;0.40;;
20890;SDS011;10605;52.968;8.844;2022-09-21T11:59:09;5.47;;;1.15;;
20890;SDS011;10605;52.968;8.844;2022-09-21T12:02:09;3.67;;;0.60;;
20890;SDS011;10605;52.968;8.844;2022-09-21T12:16:23;1.75;;;0.70;;
20890;SDS011;10605;52.968;8.844;2022-09-21T12:21:35;2.78;;;0.73;;
20890;SDS011;10605;52.968;8.844;2022-09-21T12:24:28;2.63;;;0.70;;
20890;SDS011;10605;52.968;8.844;2022-09-21T12:27:00;3.13;;;0.70;;
20890;SDS011;10605;52.968;8.844;2022-09-21T12:29:34;3.55;;;0.80;;
20890;SDS011;10605;52.968;8.844;2022-09-21T12:35:15;6.53;;;0.90;;
20890;SDS011;10605;52.968;8.844;2022-09-21T12:40:49;3.15;;;0.55;;
20890;SDS011;10605;52.968;8.844;2022-09-21T12:46:49;2.55;;;0.90;;
20890;SDS011;10605;52.968;8.844;2022-09-21T12:49:38;3.28;;;0.73;;
20890;SDS011;10605;52.968;8.844;2022-09-21T12:52:09;3.85;;;0.70;;
20890;SDS011;10605;52.968;8.844;2022-09-21T12:54:52;1.92;;;0.52;;
20890;SDS011;10605;52.968;8.844;2022-09-21T13:00:13;1.65;;;0.73;;
20890;SDS011;10605;52.968;8.844;2022-09-21T13:08:14;4.65;;;1.00;;
20890;SDS011;10605;52.968;8.844;2022-09-21T13:11:03;5.55;;;1.05;;
20890;SDS011;10605;52.968;8.844;2022-09-21T13:13:35;3.50;;;0.90;;
20890;SDS011;10605;52.968;8.844;2022-09-21T13:16:06;4.13;;;0.98;;
20890;SDS011;10605;52.968;8.844;2022-09-21T13:18:45;3.53;;;0.90;;
20890;SDS011;10605;52.968;8.844;2022-09-21T13:21:21;3.00;;;1.08;;
20890;SDS011;10605;52.968;8.844;2022-09-21T13:23:55;6.55;;;0.80;;
20890;SDS011;10605;52.968;8.844;2022-09-21T13:29:33;3.58;;;0.60;;
20890;SDS011;10605;52.968;8.844;2022-09-21T13:34:34;4.38;;;0.50;;
20890;SDS011;10605;52.968;8.844;2022-09-21T13:42:55;2.40;;;0.68;;
20890;SDS011;10605;52.968;8.844;2022-09-21T13:48:12;2.83;;;0.60;;
20890;SDS011;10605;52.968;8.844;2022-09-21T13:50:59;2.42;;;0.70;;
20890;SDS011;10605;52.968;8.844;2022-09-21T13:53:32;3.72;;;0.60;;
20890;SDS011;10605;52.968;8.844;2022-09-21T13:56:07;1.92;;;0.68;;
20890;SDS011;10605;52.968;8.844;2022-09-21T13:58:44;3.95;;;0.88;;
20890;SDS011;10605;52.968;8.844;2022-09-21T14:01:20;4.38;;;0.88;;
20890;SDS011;10605;52.968;8.844;2022-09-21T14:06:29;4.25;;;1.20;;
20890;SDS011;10605;52.968;8.844;2022-09-21T14:09:07;4.63;;;1.50;;
20890;SDS011;10605;52.968;8.844;2022-09-21T14:12:07;3.58;;;0.65;;
20890;SDS011;10605;52.968;8.844;2022-09-21T14:14:43;1.73;;;0.68;;
20890;SDS011;10605;52.968;8.844;2022-09-21T14:17:40;2.33;;;0.73;;
20890;SDS011;10605;52.968;8.844;2022-09-21T14:20:32;1.58;;;0.52;;
20890;SDS011;10605;52.968;8.844;2022-09-21T14:25:55;4.65;;;0.70;;
20890;SDS011;10605;52.968;8.844;2022-09-21T14:28:48;2.72;;;0.57;;
20890;SDS011;10605;52.968;8.844;2022-09-21T14:31:23;2.72;;;0.82;;
20890;SDS011;10605;52.968;8.844;2022-09-21T14:34:00;4.50;;;0.75;;
20890;SDS011;10605;52.968;8.844;2022-09-21T14:36:31;1.92;;;0.70;;
20890;SDS011;10605;52.968;8.844;2022-09-21T14:42:00;2.42;;;0.80;;
20890;SDS011;10605;52.968;8.844;2022-09-21T14:44:44;2.22;;;0.80;;
20890;SDS011;10605;52.968;8.844;2022-09-21T14:47:34;3.58;;;0.52;;
20890;SDS011;10605;52.968;8.844;2022-09-21T15:04:02;1.83;;;0.70;;
20890;SDS011;10605;52.968;8.844;2022-09-21T15:07:29;6.57;;;0.77;;
20890;SDS011;10605;52.968;8.844;2022-09-21T15:10:20;2.60;;;1.13;;
20890;SDS011;10605;52.968;8.844;2022-09-21T15:18:44;1.45;;;0.47;;
20890;SDS011;10605;52.968;8.844;2022-09-21T15:21:27;2.45;;;0.60;;
20890;SDS011;10605;52.968;8.844;2022-09-21T15:23:55;1.75;;;0.70;;
20890;SDS011;10605;52.968;8.844;2022-09-21T15:26:22;2.03;;;0.70;;
20890;SDS011;10605;52.968;8.844;2022-09-21T15:28:59;5.25;;;0.82;;
20890;SDS011;10605;52.968;8.844;2022-09-21T15:31:33;3.67;;;0.90;;
20890;SDS011;10605;52.968;8.844;2022-09-21T15:34:03;1.85;;;0.75;;
20890;SDS011;10605;52.968;8.844;2022-09-21T15:36:33;2.35;;;0.85;;
20890;SDS011;10605;52.968;8.844;2022-09-21T15:39:02;4.05;;;0.93;;
20890;SDS011;10605;52.968;8.844;2022-09-21T15:44:20;2.20;;;0.52;;
20890;SDS011;10605;52.968;8.844;2022-09-21T15:46:48;3.25;;;0.63;;
20890;SDS011;10605;52.968;8.844;2022-09-21T15:49:17;1.23;;;0.80;;
20890;SDS011;10605;52.968;8.844;2022-09-21T15:51:50;2.53;;;0.75;;
20890;SDS011;10605;52.968;8.844;2022-09-21T15:57:05;2.42;;;0.70;;
20890;SDS011;10605;52.968;8.844;2022-09-21T15:59:55;5.10;;;0.75;;
20890;SDS011;10605;52.968;8.844;2022-09-21T16:02:22;1.45;;;0.73;;
20890;SDS011;10605;52.968;8.844;2022-09-21T16:04:50;2.40;;;0.77;;
20890;SDS011;10605;52.968;8.844;2022-09-21T16:07:23;2.78;;;0.60;;
20890;SDS011;10605;52.968;8.844;2022-09-21T16:09:52;2.17;;;0.60;;
20890;SDS011;10605;52.968;8.844;2022-09-21T16:14:50;4.03;;;1.00;;
20890;SDS011;10605;52.968;8.844;2022-09-21T16:17:21;1.10;;;0.32;;
20890;SDS011;10605;52.968;8.844;2022-09-21T16:22:15;2.47;;;0.80;;
20890;SDS011;10605;52.968;8.844;2022-09-21T16:24:44;1.60;;;0.65;;
20890;SDS011;10605;52.968;8.844;2022-09-21T16:27:20;3.17;;;0.77;;
20890;SDS011;10605;52.968;8.844;2022-09-21T16:29:51;9.43;;;0.95;;
20890;SDS011;10605;52.968;8.844;2022-09-21T16:32:31;1.23;;;0.70;;
20890;SDS011;10605;52.968;8.844;2022-09-21T16:37:58;3.10;;;0.73;;
20890;SDS011;10605;52.968;8.844;2022-09-21T16:40:29;2.92;;;0.52;;
20890;SDS011;10605;52.968;8.844;2022-09-21T16:42:54;4.00;;;0.57;;
20890;SDS011;10605;52.968;8.844;2022-09-21T16:45:28;1.42;;;0.70;;
20890;SDS011;10605;52.968;8.844;2022-09-21T16:47:56;1.83;;;0.60;;
20890;SDS011;10605;52.968;8.844;2022-09-21T16:50:23;3.15;;;0.90;;
20890;SDS011;10605;52.968;8.844;2022-09-21T16:52:55;2.35;;;0.85;;
20890;SDS011;10605;52.968;8.844;2022-09-21T16:55:24;2.20;;;0.60;;
20890;SDS011;10605;52.968;8.844;2022-09-21T16:57:55;4.93;;;0.95;;
20890;SDS011;10605;52.968;8.844;2022-09-21T17:00:28;2.70;;;0.85;;
20890;SDS011;10605;52.968;8.844;2022-09-21T17:03:10;2.50;;;0.85;;
20890;SDS011;10605;52.968;8.844;2022-09-21T17:05:43;1.10;;;0.60;;
20890;SDS011;10605;52.968;8.844;2022-09-21T17:08:15;3.63;;;1.05;;
20890;SDS011;10605;52.968;8.844;2022-09-21T17:11:04;2.15;;;1.33;;
20890;SDS011;10605;52.968;8.844;2022-09-21T17:13:38;2.83;;;0.80;;
20890;SDS011;10605;52.968;8.844;2022-09-21T17:16:13;3.13;;;0.70;;
20890;SDS011;10605;52.968;8.844;2022-09-21T17:18:47;2.17;;;0.60;;
20890;SDS011;10605;52.968;8.844;2022-09-21T17:21:22;4.82;;;0.80;;
20890;SDS011;10605;52.968;8.844;2022-09-21T17:24:21;7.07;;;0.70;;
20890;SDS011;10605;52.968;8.844;2022-09-21T17:27:00;7.85;;;0.93;;
20890;SDS011;10605;52.968;8.844;2022-09-21T17:29:26;2.28;;;0.88;;
20890;SDS011;10605;52.968;8.844;2022-09-21T17:31:56;2.40;;;0.80;;
20890;SDS011;10605;52.968;8.844;2022-09-21T17:34:23;2.17;;;0.80;;
20890;SDS011;10605;52.968;8.844;2022-09-21T17:36:51;4.05;;;1.10;;
20890;SDS011;10605;52.968;8.844;2022-09-21T17:39:25;1.88;;;0.82;;
20890;SDS011;10605;52.968;8.844;2022-09-21T17:41:56;6.72;;;0.88;;
20890;SDS011;10605;52.968;8.844;2022-09-21T17:44:47;2.10;;;1.00;;
20890;SDS011;10605;52.968;8.844;2022-09-21T17:47:24;2.13;;;0.88;;
20890;SDS011;10605;52.968;8.844;2022-09-21T17:52:53;2.25;;;1.00;;
20890;SDS011;10605;52.968;8.844;2022-09-21T17:55:51;2.67;;;0.90;;
20890;SDS011;10605;52.968;8.844;2022-09-21T17:58:50;1.35;;;1.00;;
20890;SDS011;10605;52.968;8.844;2022-09-21T18:03:49;9.32;;;1.50;;
20890;SDS011;10605;52.968;8.844;2022-09-21T18:06:15;3.90;;;1.10;;
20890;SDS011;10605;52.968;8.844;2022-09-21T18:08:47;2.97;;;1.42;;
20890;SDS011;10605;52.968;8.844;2022-09-21T18:14:29;2.88;;;1.48;;
20890;SDS011;10605;52.968;8.844;2022-09-21T18:17:49;3.22;;;1.38;;
20890;SDS011;10605;52.968;8.844;2022-09-21T18:25:44;2.65;;;1.52;;
20890;SDS011;10605;52.968;8.844;2022-09-21T18:28:16;5.55;;;1.80;;
20890;SDS011;10605;52.968;8.844;2022-09-21T18:30:46;3.60;;;2.45;;
20890;SDS011;10605;52.968;8.844;2022-09-21T18:33:20;7.13;;;2.75;;
20890;SDS011;10605;52.968;8.844;2022-09-21T18:36:07;2.45;;;2.10;;
20890;SDS011;10605;52.968;8.844;2022-09-21T18:38:54;5.57;;;2.13;;
20890;SDS011;10605;52.968;8.844;2022-09-21T18:41:34;10.52;;;2.30;;
20890;SDS011;10605;52.968;8.844;2022-09-21T18:44:22;5.78;;;2.33;;
20890;SDS011;10605;52.968;8.844;2022-09-21T18:47:05;4.78;;;2.75;;
20890;SDS011;10605;52.968;8.844;2022-09-21T18:50:09;7.45;;;2.60;;
20890;SDS011;10605;52.968;8.844;2022-09-21T18:55:49;4.32;;;3.00;;
20890;SDS011;10605;52.968;8.844;2022-09-21T18:58:16;8.00;;;2.92;;
20890;SDS011;10605;52.968;8.844;2022-09-21T19:00:47;6.88;;;2.40;;
20890;SDS011;10605;52.968;8.844;2022-09-21T19:03:13;4.63;;;2.70;;
20890;SDS011;10605;52.968;8.844;2022-09-21T19:06:30;3.50;;;2.35;;
20890;SDS011;10605;52.968;8.844;2022-09-21T19:08:56;3.03;;;2.60;;
20890;SDS011;10605;52.968;8.844;2022-09-21T19:11:46;5.22;;;2.67;;
20890;SDS011;10605;52.968;8.844;2022-09-21T19:14:36;4.55;;;2.60;;